createdAt,value
2022-11-07T00:03:38.324Z,37.17
2022-11-07T00:08:43.378Z,40.35
2022-11-07T00:13:52.912Z,39.70
2022-11-07T00:18:57.891Z,33.47
2022-11-07T00:24:03.120Z,40.35
2022-11-07T00:29:10.679Z,36.58
2022-11-07T00:34:15.720Z,36.92
2022-11-07T00:39:20.944Z,35.67
2022-11-07T00:44:28.822Z,38.13
2022-11-07T00:49:33.883Z,41.63
2022-11-07T00:54:38.865Z,37.85
2022-11-07T00:59:46.438Z,37.80
2022-11-07T01:05:04.656Z,39.42
2022-11-07T01:10:10.964Z,36.97
2022-11-07T01:15:18.705Z,38.83
2022-11-07T01:20:23.732Z,40.97
2022-11-07T01:25:28.838Z,39.13
2022-11-07T01:30:36.424Z,42.13
2022-11-07T01:35:41.410Z,39.20
2022-11-07T01:40:59.173Z,40.35
2022-11-07T01:46:06.868Z,39.42
2022-11-07T01:51:12.091Z,44.55
2022-11-07T01:56:19.954Z,40.25
2022-11-07T02:01:28.009Z,41.33
2022-11-07T02:06:39.938Z,37.58
2022-11-07T02:11:45.083Z,47.72
2022-11-07T02:16:52.622Z,50.47
2022-11-07T02:22:03.586Z,46.03
2022-11-07T02:27:13.936Z,48.90
2022-11-07T02:32:18.945Z,54.75
2022-11-07T02:37:27.119Z,46.05
2022-11-07T02:42:43.845Z,47.25
2022-11-07T02:47:48.862Z,49.63
2022-11-07T02:52:53.903Z,50.65
2022-11-07T02:58:01.485Z,55.97
2022-11-07T03:03:06.578Z,59.15
2022-11-07T03:08:11.597Z,51.83
2022-11-07T03:13:19.349Z,51.30
2022-11-07T03:18:24.423Z,56.72
2022-11-07T03:23:29.392Z,55.67
2022-11-07T03:28:37.356Z,60.72
2022-11-07T03:33:42.304Z,51.33
2022-11-07T03:38:47.329Z,53.90
2022-11-07T03:43:54.884Z,65.28
2022-11-07T03:48:59.993Z,52.60
2022-11-07T03:54:04.936Z,54.35
2022-11-07T03:59:12.708Z,56.63
2022-11-07T04:04:17.660Z,63.45
2022-11-07T04:09:22.600Z,54.08
2022-11-07T04:14:42.489Z,57.85
2022-11-07T04:19:47.472Z,55.67
2022-11-07T04:24:52.446Z,57.45
2022-11-07T04:30:00.280Z,60.75
2022-11-07T04:35:05.255Z,66.95
2022-11-07T04:40:11.725Z,64.10
2022-11-07T04:45:20.028Z,63.58
2022-11-07T04:50:24.958Z,58.88
2022-11-07T04:55:32.462Z,53.58
2022-11-07T05:00:40.341Z,54.38
2022-11-07T05:05:45.285Z,57.67
2022-11-07T05:10:50.217Z,60.00
2022-11-07T05:15:57.765Z,58.65
2022-11-07T05:21:02.696Z,53.65
2022-11-07T05:26:07.912Z,63.95
2022-11-07T05:31:18.684Z,66.43
2022-11-07T05:36:25.585Z,58.90
2022-11-07T05:41:30.513Z,57.90
2022-11-07T05:46:42.064Z,50.40
2022-11-07T05:51:47.021Z,55.95
2022-11-07T05:56:52.002Z,43.22
2022-11-07T06:01:59.740Z,41.92
2022-11-07T06:07:04.738Z,44.67
2022-11-07T06:12:10.152Z,44.63
2022-11-07T06:17:17.699Z,40.50
2022-11-07T06:22:24.791Z,47.53
2022-11-07T06:27:29.725Z,57.13
2022-11-07T06:32:37.586Z,57.50
2022-11-07T06:37:42.649Z,54.25
2022-11-07T06:42:47.598Z,45.78
2022-11-07T06:47:58.313Z,58.22
2022-11-07T06:53:06.589Z,56.10
2022-11-07T06:58:11.713Z,64.55
2022-11-07T07:03:19.665Z,53.20
2022-11-07T07:08:25.378Z,45.97
2022-11-07T07:13:30.358Z,54.85
2022-11-07T07:18:38.914Z,62.50
2022-11-07T07:23:44.245Z,62.33
2022-11-07T07:28:49.201Z,62.80
2022-11-07T07:33:56.898Z,58.67
2022-11-07T07:39:02.049Z,61.13
2022-11-07T07:44:07.328Z,51.78
2022-11-07T07:49:15.018Z,49.83
2022-11-07T07:54:19.996Z,57.75
2022-11-07T07:59:25.047Z,58.38
2022-11-07T08:04:32.769Z,53.80
2022-11-07T08:09:38.017Z,49.17
2022-11-07T08:14:43.002Z,50.10
2022-11-07T08:19:50.551Z,42.53
2022-11-07T08:24:55.796Z,49.20
2022-11-07T08:30:00.893Z,44.38
2022-11-07T08:35:09.269Z,42.20
2022-11-07T08:40:15.748Z,66.97
2022-11-07T08:45:21.236Z,42.50
2022-11-07T08:50:29.719Z,39.67
2022-11-07T08:55:34.779Z,67.63
2022-11-07T09:00:39.917Z,45.28
2022-11-07T09:05:47.562Z,39.45
2022-11-07T09:10:52.663Z,56.63
2022-11-07T09:16:00.024Z,53.45
2022-11-07T09:21:07.878Z,48.00
2022-11-07T09:26:13.035Z,45.60
2022-11-07T09:31:18.516Z,64.38
2022-11-07T09:36:26.256Z,63.63
2022-11-07T09:41:38.886Z,47.28
2022-11-07T09:46:56.095Z,44.88
2022-11-07T09:52:07.192Z,47.95
2022-11-07T09:57:14.377Z,82.57
2022-11-07T10:02:21.516Z,59.13
2022-11-07T10:07:37.411Z,74.85
2022-11-07T10:13:07.086Z,54.00
2022-11-07T10:18:22.730Z,42.28
2022-11-07T10:23:41.862Z,37.92
2022-11-07T10:28:48.648Z,38.92
2022-11-07T10:33:55.572Z,37.22
2022-11-07T10:39:04.320Z,31.05
2022-11-07T10:44:13.574Z,32.72
2022-11-07T10:49:22.573Z,33.07
2022-11-07T10:54:33.280Z,44.33
2022-11-07T10:59:40.117Z,30.17
2022-11-07T11:04:51.448Z,33.58
2022-11-07T11:10:00.519Z,36.33
2022-11-07T11:15:12.677Z,30.13
2022-11-07T11:20:33.212Z,31.40
2022-11-07T11:25:50.742Z,30.33
2022-11-07T11:30:59.481Z,34.03
2022-11-07T11:36:12.332Z,30.33
2022-11-07T11:41:24.555Z,71.03
2022-11-07T11:46:33.492Z,29.10
2022-11-07T11:51:43.860Z,24.42
2022-11-07T11:56:58.245Z,35.72
2022-11-07T12:02:24.481Z,30.58
2022-11-07T12:07:41.096Z,28.02
2022-11-07T12:12:58.938Z,22.33
2022-11-07T12:18:07.028Z,22.25
2022-11-07T12:23:22.061Z,25.75
2022-11-07T12:28:41.596Z,30.17
2022-11-07T12:33:51.259Z,39.20
2022-11-07T12:39:07.422Z,22.63
2022-11-07T12:44:27.883Z,25.70
2022-11-07T12:49:58.957Z,24.23
2022-11-07T12:55:06.037Z,26.33
2022-11-07T13:00:24.555Z,26.23
2022-11-07T13:05:41.006Z,26.88
2022-11-07T13:10:52.008Z,35.67
2022-11-07T13:16:15.501Z,34.83
2022-11-07T13:21:22.701Z,32.55
2022-11-07T13:26:46.375Z,68.88
2022-11-07T13:32:11.880Z,65.82
2022-11-07T13:37:22.296Z,87.82
2022-11-07T13:42:29.699Z,75.53
2022-11-07T13:47:45.258Z,34.30
2022-11-07T13:52:58.054Z,33.03
2022-11-07T13:58:06.806Z,30.15
2022-11-07T14:03:25.757Z,27.20
2022-11-07T14:08:35.254Z,34.78
2022-11-07T14:13:41.906Z,35.38
2022-11-07T14:18:51.821Z,47.03
2022-11-07T14:23:56.922Z,36.65
2022-11-07T14:29:02.353Z,33.20
2022-11-07T14:34:22.709Z,67.93
2022-11-07T14:44:54.277Z,65.07
2022-11-07T14:50:03.558Z,58.95
2022-11-07T14:55:14.849Z,55.25
2022-11-07T15:00:23.151Z,47.53
2022-11-07T15:05:33.446Z,61.70
2022-11-07T15:10:41.448Z,50.88
2022-11-07T15:15:47.021Z,55.13
2022-11-07T15:21:00.287Z,43.28
2022-11-07T15:26:13.974Z,47.30
2022-11-07T15:31:26.908Z,44.95
2022-11-07T15:36:39.991Z,42.67
2022-11-07T15:41:46.346Z,37.30
2022-11-07T15:46:51.463Z,48.42
2022-11-07T15:52:00.096Z,32.97
2022-11-07T15:57:10.645Z,35.33
2022-11-07T16:02:19.417Z,36.20
2022-11-07T16:07:27.353Z,57.38
2022-11-07T16:12:32.480Z,50.47
2022-11-07T17:02:50.760Z,78.43
2022-11-07T17:07:56.164Z,52.40
2022-11-07T17:13:01.176Z,73.80
2022-11-07T17:18:08.968Z,80.53
2022-11-07T17:23:14.621Z,61.35
2022-11-07T17:28:19.781Z,40.40
2022-11-07T17:33:27.413Z,31.05
2022-11-07T17:38:32.496Z,39.13
2022-11-07T17:43:37.685Z,46.92
2022-11-07T17:48:47.351Z,42.70
2022-11-07T17:53:52.673Z,51.70
2022-11-07T17:58:59.731Z,51.22
2022-11-07T18:04:08.013Z,42.47
2022-11-07T18:09:17.491Z,35.22
2022-11-07T18:14:22.597Z,40.37
2022-11-07T18:19:30.241Z,45.55
2022-11-07T18:24:35.214Z,51.10
2022-11-07T18:29:41.513Z,41.13
2022-11-07T18:34:49.053Z,36.55
2022-11-07T18:39:54.304Z,29.73
2022-11-07T18:44:59.717Z,33.38
2022-11-07T18:50:08.247Z,38.83
2022-11-07T18:55:13.432Z,43.05
2022-11-07T19:00:19.614Z,52.85
2022-11-07T19:05:27.637Z,50.10
2022-11-07T19:10:32.635Z,46.13
2022-11-07T19:15:41.202Z,40.55
2022-11-07T19:20:48.853Z,47.72
2022-11-07T19:25:54.292Z,46.50
2022-11-07T19:30:59.717Z,49.83
2022-11-07T19:36:09.046Z,50.63
2022-11-07T19:41:15.054Z,58.70
2022-11-07T19:46:21.915Z,49.88
2022-11-07T19:51:29.787Z,59.30
2022-11-07T19:56:35.209Z,62.28
2022-11-07T20:01:40.325Z,55.67
2022-11-07T20:06:48.002Z,58.35
2022-11-07T20:11:52.964Z,59.80
2022-11-07T20:16:58.038Z,53.30
2022-11-07T20:22:05.862Z,54.08
2022-11-07T20:27:11.033Z,57.33
2022-11-07T20:32:15.990Z,53.78
2022-11-07T20:37:24.129Z,60.17
2022-11-07T20:42:29.573Z,54.85
2022-11-07T20:47:35.644Z,56.33
2022-11-07T20:52:43.295Z,55.10
2022-11-07T20:57:48.264Z,57.20
2022-11-07T21:02:53.634Z,57.53
2022-11-07T21:08:01.368Z,59.38
2022-11-07T21:13:06.871Z,57.85
2022-11-07T21:18:11.805Z,56.15
2022-11-07T21:23:19.985Z,52.55
2022-11-07T21:28:26.509Z,53.17
2022-11-07T21:33:31.772Z,60.75
2022-11-07T21:38:39.563Z,67.50
2022-11-07T21:43:44.759Z,63.33
2022-11-07T21:48:50.504Z,63.70
2022-11-07T21:53:58.256Z,61.33
2022-11-07T21:59:04.426Z,60.25
2022-11-07T22:04:12.733Z,66.10
2022-11-07T22:09:22.606Z,68.57
2022-11-07T22:14:27.559Z,72.00
2022-11-07T22:19:32.577Z,65.28
2022-11-07T22:24:40.276Z,76.32
2022-11-07T22:29:47.059Z,74.45
2022-11-07T22:34:52.119Z,99.13
2022-11-07T22:39:59.764Z,74.88
2022-11-07T22:45:05.045Z,103.15
2022-11-07T22:50:10.861Z,147.02
2022-11-07T22:55:18.526Z,118.95
2022-11-07T23:00:23.787Z,62.50
2022-11-07T23:05:29.575Z,168.75
2022-11-07T23:10:37.274Z,63.65
2022-11-07T23:15:42.240Z,68.43
2022-11-07T23:20:59.583Z,88.65
2022-11-07T23:26:07.912Z,64.95
2022-11-07T23:31:13.888Z,75.82
2022-11-07T23:36:20.268Z,60.70
2022-11-07T23:41:27.983Z,70.32
2022-11-07T23:46:47.654Z,85.15
2022-11-07T23:51:52.811Z,90.60
2022-11-07T23:57:00.394Z,84.75
